Time;durP1;ratioP1;P1;durP2;ratioP2;P2;SDS_P1;SDS_P2;PMS_P1;PMS_P2;Temp;Humidity;BMP_temperature;BMP_pressure;BME280_temperature;BME280_humidity;BME280_pressure;Samples;Min_cycle;Max_cycle;Signal;HPM_P1;HPM_P2
2022/12/03 00:02:54;;;;;;;12.37;5.22;;;;;;;1.03;50.91;102307.73;1805147;79;22287;-57
2022/12/03 00:10:16;;;;;;;11.57;5.58;;;;;;;1.04;51.05;102318.94;1805104;79;21351;-56
2022/12/03 00:18:15;;;;;;;10.95;5.35;;;;;;;0.87;50.95;102326.87;1879295;76;22134;-57
2022/12/03 00:21:40;;;;;;;13.65;5.50;;;;;;;0.83;51.06;102334.70;1806575;79;21189;-57
2022/12/03 00:25:14;;;;;;;13.18;5.05;;;;;;;0.88;51.20;102327.30;1838580;76;22269;-57
2022/12/03 00:29:06;;;;;;;10.38;5.45;;;;;;;0.83;51.25;102342.78;1785807;79;21398;-56
2022/12/03 00:32:49;;;;;;;14.43;6.12;;;;;;;0.85;51.35;102347.65;1764017;78;22044;-57
2022/12/03 00:36:16;;;;;;;9.68;5.33;;;;;;;0.86;51.35;102357.48;1669399;82;21839;-57
2022/12/03 00:39:51;;;;;;;12.20;6.30;;;;;;;0.87;51.42;102352.48;1699538;83;21350;-58
2022/12/03 00:43:30;;;;;;;18.12;6.70;;;;;;;0.90;51.44;102361.81;1684861;81;21219;-58
2022/12/03 00:47:08;;;;;;;12.60;5.75;;;;;;;0.84;51.37;102364.75;1693599;84;21746;-56
2022/12/03 00:50:49;;;;;;;12.53;6.55;;;;;;;0.78;51.35;102363.67;1696033;80;21223;-57
2022/12/03 00:54:29;;;;;;;11.12;5.25;;;;;;;0.70;51.41;102361.77;1664576;82;22130;-57
2022/12/03 00:58:03;;;;;;;19.77;6.58;;;;;;;0.72;51.56;102362.59;1695099;81;21502;-57
2022/12/03 01:01:34;;;;;;;11.65;5.62;;;;;;;0.71;51.55;102372.09;1702234;84;21218;-57
2022/12/03 01:05:42;;;;;;;10.58;5.85;;;;;;;0.68;51.57;102389.73;1693583;81;21401;-57
2022/12/03 01:09:26;;;;;;;10.00;5.72;;;;;;;0.63;51.56;102393.09;1700962;81;21230;-58
2022/12/03 01:13:07;;;;;;;9.58;5.67;;;;;;;0.55;51.59;102388.03;1673278;82;21267;-56
2022/12/03 01:20:00;;;;;;;10.38;5.60;;;;;;;0.57;51.86;102380.73;1689740;80;21260;-57
2022/12/03 01:23:23;;;;;;;11.38;5.80;;;;;;;0.60;51.93;102389.18;1679491;83;21284;-57
2022/12/03 01:26:56;;;;;;;9.95;5.28;;;;;;;0.60;51.90;102392.77;1676242;85;21621;-56
2022/12/03 01:34:52;;;;;;;10.88;5.65;;;;;;;0.56;51.87;102405.94;1664681;83;21883;-56
2022/12/03 01:38:47;;;;;;;10.58;5.60;;;;;;;0.56;51.88;102408.63;1807801;76;22322;-56
2022/12/03 01:42:12;;;;;;;10.88;5.83;;;;;;;0.43;51.82;102409.21;1777797;76;21243;-57
2022/12/03 01:45:49;;;;;;;11.63;5.70;;;;;;;0.35;51.92;102416.23;1658325;81;21438;-57
2022/12/03 01:53:14;;;;;;;14.25;6.05;;;;;;;0.18;51.96;102414.68;1698643;81;21917;-58
2022/12/03 01:56:45;;;;;;;10.25;5.55;;;;;;;0.13;52.12;102427.45;1666310;82;21243;-56
2022/12/03 02:00:02;;;;;;;12.73;6.42;;;;;;;0.22;52.32;102430.26;1648612;82;21753;-56
2022/12/03 02:03:10;;;;;;;11.85;6.35;;;;;;;0.25;52.37;102424.75;1668427;80;21230;-56
2022/12/03 02:06:35;;;;;;;15.08;5.92;;;;;;;0.22;52.30;102435.19;1684616;81;21187;-58
2022/12/03 02:10:01;;;;;;;11.78;5.95;;;;;;;0.23;52.36;102439.63;1688488;82;21201;-57
2022/12/03 02:13:38;;;;;;;11.75;6.08;;;;;;;0.24;52.38;102442.71;1683512;82;21779;-58
2022/12/03 02:17:23;;;;;;;12.30;6.78;;;;;;;0.19;52.30;102443.36;1711531;81;21229;-57
2022/12/03 02:21:44;;;;;;;12.45;6.40;;;;;;;0.17;52.36;102447.06;1705364;80;21955;-58
2022/12/03 02:25:52;;;;;;;18.23;5.87;;;;;;;0.09;52.35;102457.25;1710398;80;21260;-57
2022/12/03 02:30:12;;;;;;;11.90;6.15;;;;;;;0.05;52.50;102460.52;1704475;80;21763;-57
2022/12/03 02:34:04;;;;;;;9.93;5.25;;;;;;;0.10;52.60;102464.37;1710801;81;21407;-57
2022/12/03 02:37:33;;;;;;;12.80;6.15;;;;;;;0.09;52.65;102465.33;1710518;80;21266;-57
2022/12/03 02:41:06;;;;;;;13.03;6.28;;;;;;;0.06;52.64;102474.87;1679464;81;21432;-56
2022/12/03 02:44:33;;;;;;;9.83;5.05;;;;;;;0.19;52.80;102482.41;1836899;76;22292;-57
2022/12/03 02:48:31;;;;;;;11.57;5.80;;;;;;;0.15;52.84;102478.09;1784129;78;21169;-57
2022/12/03 02:52:26;;;;;;;12.45;6.37;;;;;;;0.17;52.85;102485.65;1801883;79;21302;-57
2022/12/03 02:56:28;;;;;;;14.47;6.35;;;;;;;0.09;52.63;102491.79;1805213;79;21660;-57
2022/12/03 03:00:16;;;;;;;13.83;5.58;;;;;;;0.08;52.83;102498.58;1786613;79;21363;-58
2022/12/03 03:04:32;;;;;;;10.30;5.60;;;;;;;-0.02;52.73;102494.86;1805283;79;21326;-58
2022/12/03 03:07:54;;;;;;;11.88;5.42;;;;;;;0.00;52.84;102493.50;1876152;76;22202;-56
2022/12/03 03:12:19;;;;;;;9.40;5.75;;;;;;;-0.06;52.89;102493.24;1771332;79;21386;-57
2022/12/03 03:16:03;;;;;;;8.98;5.22;;;;;;;-0.17;52.79;102504.87;1874943;75;22724;-56
2022/12/03 03:19:22;;;;;;;10.40;5.67;;;;;;;-0.18;52.84;102513.00;1836080;76;22267;-57
2022/12/03 03:22:54;;;;;;;10.58;5.67;;;;;;;-0.31;52.76;102519.30;1774020;80;21327;-57
2022/12/03 03:27:00;;;;;;;9.40;5.10;;;;;;;-0.34;52.86;102511.80;1777435;80;21327;-57
2022/12/03 03:31:06;;;;;;;9.93;5.08;;;;;;;-0.36;52.87;102519.92;1764400;80;21712;-57
2022/12/03 03:34:13;;;;;;;9.10;5.28;;;;;;;-0.34;52.93;102530.17;1734658;81;21789;-57
2022/12/03 03:48:11;;;;;;;11.88;4.78;;;;;;;-0.62;52.88;102536.56;1806707;79;22569;-58
2022/12/03 03:52:00;;;;;;;8.33;4.30;;;;;;;-0.74;52.84;102557.12;1752370;80;21358;-56
2022/12/03 03:55:27;;;;;;;8.85;4.90;;;;;;;-0.73;52.94;102555.73;1879017;76;22210;-56
2022/12/03 03:58:52;;;;;;;11.50;5.35;;;;;;;-0.80;53.01;102556.89;1825617;78;21352;-58
2022/12/03 04:02:37;;;;;;;10.23;5.50;;;;;;;-0.83;52.99;102571.78;1748915;81;21331;-57
2022/12/03 04:06:29;;;;;;;8.40;4.45;;;;;;;-0.82;53.07;102560.09;1804410;79;21992;-57
2022/12/03 04:14:32;;;;;;;7.87;4.45;;;;;;;-1.04;52.88;102567.55;1800614;79;21359;-57
2022/12/03 04:30:23;;;;;;;8.58;4.87;;;;;;;-1.03;53.15;102586.30;1805233;79;20213;-57
2022/12/03 04:37:57;;;;;;;14.73;5.03;;;;;;;-1.33;53.10;102594.47;1805655;79;21705;-58
2022/12/03 04:41:55;;;;;;;9.00;4.20;;;;;;;-1.42;53.12;102607.70;1784593;79;21701;-56
2022/12/03 04:45:49;;;;;;;23.85;12.35;;;;;;;-1.41;53.20;102605.42;1787897;79;21662;-57
2022/12/03 04:49:28;;;;;;;10.65;5.70;;;;;;;-1.34;53.35;102610.14;1847184;75;28029;-56
2022/12/03 04:53:15;;;;;;;9.95;5.17;;;;;;;-1.32;53.25;102625.31;1822991;77;21699;-57
2022/12/03 05:00:46;;;;;;;8.00;4.22;;;;;;;-1.45;53.10;102630.63;1806210;79;21151;-56
2022/12/03 05:04:34;;;;;;;10.08;5.10;;;;;;;-1.40;53.36;102638.09;1858848;76;22268;-57
2022/12/03 05:07:49;;;;;;;29.37;12.65;;;;;;;-1.48;53.35;102648.62;1877101;76;22174;-54
2022/12/03 05:11:27;;;;;;;17.90;8.75;;;;;;;-1.56;53.44;102652.88;1709712;82;21855;-57
2022/12/03 05:15:16;;;;;;;19.70;9.43;;;;;;;-1.58;53.40;102662.33;1745803;81;21220;-57
2022/12/03 05:19:07;;;;;;;14.85;7.37;;;;;;;-1.63;53.50;102662.91;1751927;82;21347;-58
2022/12/03 05:22:46;;;;;;;20.92;10.40;;;;;;;-1.64;53.54;102670.56;1750928;81;22002;-56
2022/12/03 05:26:27;;;;;;;15.78;8.95;;;;;;;-1.70;53.55;102681.45;1752329;82;21216;-57
2022/12/03 05:30:02;;;;;;;10.43;6.53;;;;;;;-1.96;53.31;102682.62;1734849;81;21606;-56
2022/12/03 05:33:43;;;;;;;16.67;7.17;;;;;;;-2.19;53.39;102690.38;1743751;81;21368;-57
2022/12/03 05:37:35;;;;;;;;;;;;;;;-2.23;53.65;102695.41;1754234;82;21322;-56
2022/12/03 05:45:49;;;;;;;12.75;6.42;;;;;;;-2.44;53.79;102698.61;1884081;75;22200;-57
2022/12/03 05:49:33;;;;;;;14.07;8.07;;;;;;;-2.52;53.87;102707.30;1789955;79;21211;-56
2022/12/03 05:53:16;;;;;;;12.78;6.80;;;;;;;-2.55;53.97;102707.38;1774340;79;21898;-57
2022/12/03 05:57:10;;;;;;;12.90;6.72;;;;;;;-2.54;54.09;102709.61;1774447;79;21286;-57
2022/12/03 06:00:55;;;;;;;13.93;7.70;;;;;;;-2.54;54.15;102706.48;1789684;78;21387;-59
2022/12/03 06:04:35;;;;;;;12.65;7.37;;;;;;;-2.54;54.22;102711.84;1777404;79;21191;-58
2022/12/03 06:08:42;;;;;;;17.42;7.75;;;;;;;-2.54;54.24;102707.82;1778655;79;21194;-56
2022/12/03 06:12:32;;;;;;;14.00;7.97;;;;;;;-2.49;54.25;102711.25;1883305;76;22246;-57
2022/12/03 06:16:01;;;;;;;18.12;9.75;;;;;;;-2.55;54.29;102713.22;1810193;78;21196;-58
2022/12/03 06:19:35;;;;;;;18.15;8.80;;;;;;;-2.54;54.42;102707.82;1787096;78;21274;-57
2022/12/03 06:23:24;;;;;;;13.35;7.25;;;;;;;-2.53;54.41;102719.41;1777817;79;21286;-57
2022/12/03 06:26:49;;;;;;;14.78;6.97;;;;;;;-2.52;54.42;102717.17;1777533;79;21175;-58
2022/12/03 06:30:33;;;;;;;12.30;6.47;;;;;;;-2.40;54.56;102724.45;1808146;79;22231;-56
2022/12/03 06:34:08;;;;;;;14.25;7.40;;;;;;;-2.40;54.63;102722.22;1715488;83;21291;-56
2022/12/03 06:37:52;;;;;;;11.10;5.78;;;;;;;-2.43;54.63;102733.92;1734996;82;21221;-57
2022/12/03 06:41:22;;;;;;;13.18;6.78;;;;;;;-2.35;54.74;102729.70;1718571;83;21228;-59
2022/12/03 06:45:07;;;;;;;9.75;5.60;;;;;;;-2.30;54.75;102739.38;1674125;84;21210;-58
2022/12/03 06:48:54;;;;;;;10.58;6.03;;;;;;;-2.23;54.85;102727.59;1749051;80;21805;-58
2022/12/03 06:55:59;;;;;;;11.00;5.85;;;;;;;-1.98;54.90;102731.42;1857670;76;23086;-57
2022/12/03 06:59:27;;;;;;;12.07;6.08;;;;;;;-1.99;54.90;102740.41;1784887;79;21745;-57
2022/12/03 07:03:28;;;;;;;16.02;6.20;;;;;;;-1.92;54.96;102743.34;1674704;81;22102;-57
2022/12/03 07:07:22;;;;;;;32.40;12.85;;;;;;;-1.84;55.01;102741.34;1741225;82;21362;-57
2022/12/03 07:15:02;;;;;;;19.05;8.60;;;;;;;-1.59;55.09;102749.16;1853818;76;22344;-57
2022/12/03 07:19:16;;;;;;;15.78;8.13;;;;;;;-1.59;55.05;102745.13;1783689;79;22027;-58
2022/12/03 07:22:39;;;;;;;23.83;10.18;;;;;;;-1.58;55.05;102743.34;1787235;79;21539;-58
2022/12/03 07:29:48;;;;;;;39.65;19.82;;;;;;;-1.41;55.14;102733.48;1811586;78;21193;-60
2022/12/03 07:33:29;;;;;;;59.80;22.35;;;;;;;-1.34;55.16;102743.12;1811481;78;21340;-57
2022/12/03 07:37:16;;;;;;;48.38;20.85;;;;;;;-1.30;55.17;102742.98;1803145;79;21252;-60
2022/12/03 07:40:58;;;;;;;33.58;15.13;;;;;;;-1.24;55.18;102740.61;1812052;79;21186;-58
2022/12/03 07:44:50;;;;;;;19.00;10.08;;;;;;;-1.14;55.35;102751.52;1807136;78;21201;-58
2022/12/03 07:59:04;;;;;;;13.88;6.78;;;;;;;-0.81;55.42;102738.42;1858449;75;22396;-57
2022/12/03 08:02:28;;;;;;;15.10;6.17;;;;;;;-0.84;55.45;102743.41;1821133;77;21304;-57
2022/12/03 08:06:06;;;;;;;16.25;8.20;;;;;;;-0.77;55.49;102750.83;1803434;77;21250;-58
2022/12/03 08:09:30;;;;;;;13.03;6.75;;;;;;;-0.67;55.61;102746.50;1721998;80;21205;-60
2022/12/03 08:13:08;;;;;;;14.38;6.70;;;;;;;-0.54;55.65;102745.65;1811765;76;21687;-59
2022/12/03 08:17:04;;;;;;;16.02;6.33;;;;;;;-0.43;55.69;102749.73;1730816;77;21221;-59
2022/12/03 08:20:44;;;;;;;16.35;6.97;;;;;;;-0.36;55.51;102747.28;1769871;77;21654;-59
2022/12/03 08:24:32;;;;;;;14.53;6.58;;;;;;;-0.31;55.63;102738.61;1774991;76;21193;-59
2022/12/03 08:28:42;;;;;;;11.48;6.08;;;;;;;-0.22;55.59;102741.44;1778509;79;21338;-58
2022/12/03 08:36:03;;;;;;;15.68;6.72;;;;;;;-0.04;55.72;102740.84;1680607;81;21324;-57
2022/12/03 08:40:01;;;;;;;18.30;6.33;;;;;;;0.10;55.71;102745.30;1652063;85;21595;-57
2022/12/03 08:43:34;;;;;;;10.88;5.50;;;;;;;0.16;55.68;102733.45;1703487;82;21242;-58
2022/12/03 08:47:30;;;;;;;14.15;6.12;;;;;;;0.25;55.75;102735.37;1702443;83;22019;-58
2022/12/03 08:51:34;;;;;;;9.93;5.58;;;;;;;0.23;55.52;102737.68;1656188;84;22022;-59
2022/12/03 08:55:58;;;;;;;12.82;5.05;;;;;;;0.27;55.63;102730.78;1667179;83;21328;-57
2022/12/03 08:59:48;;;;;;;15.55;6.40;;;;;;;0.39;55.73;102726.33;1678370;82;21251;-58
2022/12/03 09:03:06;;;;;;;12.15;5.70;;;;;;;0.51;55.79;102738.01;1639542;82;21221;-57
2022/12/03 09:06:36;;;;;;;11.97;5.72;;;;;;;0.68;55.85;102731.53;1695003;82;21241;-58
2022/12/03 09:09:58;;;;;;;12.47;5.83;;;;;;;0.76;55.74;102735.33;1660878;83;21249;-58
2022/12/03 09:17:31;;;;;;;9.75;5.78;;;;;;;0.91;55.69;102735.63;1675804;83;21617;-57
2022/12/03 09:21:10;;;;;;;15.72;5.67;;;;;;;1.05;55.73;102727.89;1681118;81;21179;-58
2022/12/03 09:24:36;;;;;;;8.38;4.78;;;;;;;1.08;55.61;102731.82;1756118;77;21219;-58
2022/12/03 09:28:02;;;;;;;10.05;5.75;;;;;;;1.17;55.65;102727.91;1788684;78;21247;-59
2022/12/03 09:31:23;;;;;;;12.18;4.75;;;;;;;1.25;55.63;102730.70;1709318;80;21316;-58
2022/12/03 09:35:19;;;;;;;9.95;5.05;;;;;;;1.38;55.64;102729.28;1716284;79;21334;-59
2022/12/03 09:39:13;;;;;;;14.83;5.87;;;;;;;1.36;55.47;102738.39;1736841;78;21289;-58
2022/12/03 09:42:50;;;;;;;9.58;5.58;;;;;;;1.36;55.51;102739.25;1716729;80;21233;-57
2022/12/03 09:46:41;;;;;;;8.95;5.30;;;;;;;1.47;55.49;102732.10;1784042;78;22004;-58
2022/12/03 09:50:37;;;;;;;9.55;4.97;;;;;;;1.49;55.50;102739.67;1702987;80;21252;-57
2022/12/03 09:54:16;;;;;;;19.65;11.53;;;;;;;1.45;55.38;102738.02;1709146;79;21230;-57
2022/12/03 09:57:32;;;;;;;13.25;6.62;;;;;;;1.34;55.25;102735.76;1733113;78;21760;-57
2022/12/03 10:01:12;;;;;;;13.05;5.67;;;;;;;1.41;55.51;102731.86;1703209;80;21549;-57
2022/12/03 10:04:36;;;;;;;11.40;5.70;;;;;;;1.58;55.67;102737.95;1701374;78;21303;-59
2022/12/03 10:08:12;;;;;;;12.50;5.42;;;;;;;1.73;55.72;102731.06;1737266;78;21203;-59
2022/12/03 10:11:42;;;;;;;8.93;5.83;;;;;;;1.75;55.54;102727.80;1707878;77;21271;-58
2022/12/03 10:15:02;;;;;;;9.20;5.25;;;;;;;1.72;55.47;102736.92;1694174;80;21460;-58
2022/12/03 10:18:29;;;;;;;8.68;5.08;;;;;;;1.68;55.41;102736.66;1713561;77;21893;-58
2022/12/03 10:22:15;;;;;;;10.18;5.12;;;;;;;1.68;55.41;102738.00;1694683;80;21279;-57
2022/12/03 10:25:33;;;;;;;9.63;5.33;;;;;;;1.66;55.30;102744.39;1670370;79;21759;-58
2022/12/03 10:28:58;;;;;;;9.45;5.60;;;;;;;1.61;55.29;102745.03;1735965;78;21289;-58
2022/12/03 10:32:23;;;;;;;11.12;5.78;;;;;;;1.61;55.38;102736.48;1769281;78;21250;-57
2022/12/03 10:35:51;;;;;;;31.25;19.70;;;;;;;1.64;55.35;102735.00;1765557;79;21325;-57
2022/12/03 10:38:36;;;;;;;19.02;6.87;;;;;;;1.73;55.48;102737.32;1773879;78;21756;-59
2022/12/03 10:42:06;;;;;;;8.20;5.22;;;;;;;1.83;55.52;102730.61;1743665;78;21350;-59
2022/12/03 10:45:42;;;;;;;9.20;5.08;;;;;;;1.89;55.53;102740.30;1707381;78;22058;-57
2022/12/03 10:54:28;;;;;;;8.63;5.08;;;;;;;1.68;55.25;102738.00;1721136;80;21282;-59
2022/12/03 10:57:42;;;;;;;12.43;5.92;;;;;;;1.70;55.31;102743.34;1715655;79;21297;-57
2022/12/03 11:01:03;;;;;;;14.40;5.53;;;;;;;1.74;55.39;102739.09;1706467;79;21586;-58
2022/12/03 11:15:16;;;;;;;8.98;4.87;;;;;;;1.99;55.36;102734.90;1687674;78;21400;-58
2022/12/03 11:19:57;;;;;;;9.18;5.53;;;;;;;1.99;55.33;102733.55;1744895;79;21305;-57
2022/12/03 11:23:15;;;;;;;9.23;5.50;;;;;;;1.94;55.28;102736.91;1686193;80;21355;-57
2022/12/03 11:45:24;;;;;;;11.00;6.67;;;;;;;1.79;55.19;102736.20;1726076;78;21203;-56
2022/12/03 11:49:11;;;;;;;7.85;5.00;;;;;;;1.77;55.22;102742.13;1726623;78;21282;-57
2022/12/03 11:52:02;;;;;;;9.60;4.55;;;;;;;1.78;55.24;102744.77;1698765;79;21590;-58
2022/12/03 11:56:07;;;;;;;7.17;4.80;;;;;;;1.82;55.24;102746.42;1681092;79;21200;-55
2022/12/03 11:59:59;;;;;;;7.12;4.75;;;;;;;1.82;55.25;102749.12;1721759;78;21224;-56
2022/12/03 12:09:12;;;;;;;12.13;6.72;;;;;;;1.69;55.14;102739.75;1734122;79;21247;-56
2022/12/03 12:24:42;;;;;;;11.40;5.40;;;;;;;1.86;55.28;102731.83;1744206;75;21605;-56
2022/12/03 12:27:50;;;;;;;9.60;5.83;;;;;;;1.91;55.26;102716.32;1737681;78;21618;-56
2022/12/03 12:35:00;;;;;;;13.25;6.45;;;;;;;1.84;55.20;102732.85;1712730;79;21547;-57
2022/12/03 12:38:41;;;;;;;12.45;6.47;;;;;;;1.81;55.18;102737.03;1728761;80;21820;-56
2022/12/03 12:42:50;;;;;;;12.65;6.20;;;;;;;1.77;55.27;102729.98;1749377;80;21643;-55
2022/12/03 12:46:33;;;;;;;11.40;5.70;;;;;;;1.71;55.19;102745.08;1708684;81;22024;-59
2022/12/03 12:49:39;;;;;;;13.88;6.37;;;;;;;1.63;55.17;102751.26;1688104;81;23496;-57
2022/12/03 12:53:21;;;;;;;14.38;6.10;;;;;;;1.62;55.19;102752.22;1674219;82;21322;-57
2022/12/03 12:57:01;;;;;;;9.95;5.58;;;;;;;1.54;55.18;102758.78;1682602;81;21243;-58
2022/12/03 12:59:57;;;;;;;15.13;6.58;;;;;;;1.47;55.25;102743.75;1652604;82;21232;-57
2022/12/03 13:03:12;;;;;;;11.43;6.50;;;;;;;1.38;55.17;102760.77;1666617;82;21730;-57
2022/12/03 13:07:06;;;;;;;13.35;6.30;;;;;;;1.27;55.21;102762.55;1680588;81;21671;-57
2022/12/03 13:20:54;;;;;;;13.08;6.58;;;;;;;0.57;55.27;102785.43;1885281;74;22250;-58
2022/12/03 13:24:35;;;;;;;13.53;6.25;;;;;;;0.38;55.35;102782.96;1799175;78;21761;-58
2022/12/03 13:28:21;;;;;;;28.10;16.93;;;;;;;0.23;55.39;102791.09;1785043;78;21216;-57
2022/12/03 13:32:09;;;;;;;19.07;7.67;;;;;;;0.09;55.48;102797.41;1802729;77;21180;-58
2022/12/03 13:35:38;;;;;;;11.83;6.10;;;;;;;-0.01;55.53;102806.70;1821234;77;21192;-58
2022/12/03 13:39:39;;;;;;;12.50;6.67;;;;;;;-0.14;55.48;102806.67;1792682;77;21622;-57
2022/12/03 13:42:58;;;;;;;12.03;6.42;;;;;;;-0.35;55.49;102809.58;1814763;77;21323;-58
2022/12/03 13:46:10;;;;;;;9.00;5.75;;;;;;;-0.52;55.51;102818.64;1813718;77;21741;-58
2022/12/03 13:49:41;;;;;;;10.70;6.33;;;;;;;-0.69;55.47;102810.65;1818566;78;21339;-58
2022/12/03 13:53:31;;;;;;;16.70;6.35;;;;;;;-0.83;55.62;102819.59;1829351;77;21332;-58
2022/12/03 13:56:45;;;;;;;10.10;6.03;;;;;;;-0.91;55.69;102822.95;1810675;78;21212;-58
2022/12/03 14:00:05;;;;;;;14.30;6.60;;;;;;;-1.00;55.72;102832.63;1824987;77;21227;-57
2022/12/03 14:03:32;;;;;;;9.50;6.22;;;;;;;-1.06;55.81;102834.16;1826595;77;21261;-57
2022/12/03 14:06:51;;;;;;;13.15;6.67;;;;;;;-1.14;55.83;102826.77;1798382;77;21912;-57
2022/12/03 14:10:19;;;;;;;13.72;6.70;;;;;;;-1.23;55.91;102823.85;1844962;77;21758;-58
2022/12/03 14:13:41;;;;;;;15.95;8.30;;;;;;;-1.26;55.98;102825.28;1820151;77;21498;-57
2022/12/03 14:17:09;;;;;;;12.90;7.40;;;;;;;-1.28;56.09;102837.01;1743543;81;21217;-58
2022/12/03 14:20:33;;;;;;;13.72;7.65;;;;;;;-1.25;56.18;102838.27;1760921;79;21745;-57
2022/12/03 14:23:47;;;;;;;13.38;7.17;;;;;;;-1.22;56.25;102837.70;1716966;81;21220;-56
2022/12/03 14:31:29;;;;;;;15.30;8.13;;;;;;;-1.21;56.11;102838.59;1771409;80;21819;-57
2022/12/03 14:35:38;;;;;;;19.67;7.85;;;;;;;-1.30;56.12;102833.47;1745751;81;21227;-57
2022/12/03 14:39:22;;;;;;;12.98;7.60;;;;;;;-1.32;56.20;102854.11;1731878;82;21303;-56
2022/12/03 14:42:58;;;;;;;12.65;7.62;;;;;;;-1.33;56.20;102860.42;1704874;84;21192;-57
2022/12/03 14:46:16;;;;;;;14.78;7.95;;;;;;;-1.34;56.32;102862.66;1707020;83;21653;-58
2022/12/03 14:49:36;;;;;;;19.40;8.20;;;;;;;-1.31;56.37;102871.53;1721284;83;21308;-57
2022/12/03 14:52:59;;;;;;;11.90;7.05;;;;;;;-1.31;56.35;102874.67;1721708;83;21205;-57
2022/12/03 14:56:19;;;;;;;15.03;7.45;;;;;;;-1.31;56.37;102876.91;1721545;83;21236;-58
2022/12/03 14:59:46;;;;;;;13.10;7.45;;;;;;;-1.31;56.40;102878.70;1703073;83;21236;-58
2022/12/03 15:02:58;;;;;;;12.75;7.97;;;;;;;-1.31;56.42;102873.33;1740543;82;21227;-56
2022/12/03 15:06:11;;;;;;;15.10;8.63;;;;;;;-1.32;56.44;102879.64;1741265;82;21362;-58
2022/12/03 15:09:22;;;;;;;23.23;9.33;;;;;;;-1.37;56.38;102896.33;1702246;82;21280;-58
2022/12/03 15:12:38;;;;;;;25.20;8.43;;;;;;;-1.46;56.26;102899.26;1741443;82;21260;-58
2022/12/03 15:15:49;;;;;;;14.30;8.95;;;;;;;-1.58;56.23;102885.22;1723187;82;21224;-58
2022/12/03 15:19:11;;;;;;;19.70;9.88;;;;;;;-1.74;56.12;102890.98;1740867;82;21235;-57
2022/12/03 15:22:54;;;;;;;22.42;11.65;;;;;;;-1.92;56.11;102898.14;1728969;81;21276;-57
2022/12/03 15:26:43;;;;;;;27.45;11.03;;;;;;;-2.04;56.21;102911.83;1704353;82;21215;-57
2022/12/03 15:30:27;;;;;;;31.62;11.95;;;;;;;-2.18;56.11;102908.57;1703212;80;21256;-57
2022/12/03 15:34:28;;;;;;;21.17;9.65;;;;;;;-2.33;56.25;102908.44;1722148;81;21307;-59
2022/12/03 15:38:22;;;;;;;25.43;12.85;;;;;;;-2.47;56.26;102919.02;1732133;81;21306;-57
2022/12/03 15:42:26;;;;;;;;;;;;;;;-2.55;56.40;102928.57;1733956;82;21216;-57
2022/12/03 15:46:13;;;;;;;17.65;9.43;;;;;;;-2.61;56.49;102927.36;1732810;82;20190;-58
2022/12/03 15:49:44;;;;;;;20.62;10.70;;;;;;;-2.65;56.62;102928.35;1717364;82;21244;-57
2022/12/03 15:56:41;;;;;;;22.15;10.43;;;;;;;-2.69;56.66;102941.38;1892953;74;22220;-58
2022/12/03 16:00:00;;;;;;;23.52;12.28;;;;;;;-2.75;56.64;102944.62;1826854;76;22266;-57
2022/12/03 16:03:31;;;;;;;19.52;11.30;;;;;;;-2.83;56.74;102954.16;1763818;79;21733;-57
2022/12/03 16:06:36;;;;;;;22.32;13.00;;;;;;;-2.86;56.76;102962.26;1764789;80;21204;-58
2022/12/03 16:09:55;;;;;;;24.32;13.25;;;;;;;-2.89;56.84;102958.30;1760633;79;21256;-58
2022/12/03 16:13:17;;;;;;;22.60;12.40;;;;;;;-2.87;56.89;102966.30;1764927;79;21379;-60
2022/12/03 16:16:13;;;;;;;28.87;14.70;;;;;;;-2.89;56.97;102967.67;1772601;81;21263;-60
2022/12/03 16:19:37;;;;;;;26.52;15.23;;;;;;;-2.87;57.02;102961.80;1761896;80;21829;-59
2022/12/03 16:23:10;;;;;;;23.30;13.43;;;;;;;-2.87;57.00;102965.83;1768856;79;21724;-58
2022/12/03 16:26:38;;;;;;;21.35;11.83;;;;;;;-2.92;56.91;102965.05;1771109;80;21355;-58
2022/12/03 16:30:01;;;;;;;20.82;11.95;;;;;;;-2.97;56.90;102969.61;1759378;80;21316;-58
2022/12/03 16:33:31;;;;;;;31.82;16.00;;;;;;;-3.02;56.88;102981.30;1710836;82;21784;-57
2022/12/03 16:40:59;;;;;;;21.97;14.47;;;;;;;-3.17;56.92;102979.77;1867589;75;27885;-59
2022/12/03 16:45:21;;;;;;;21.27;11.88;;;;;;;-3.17;56.89;102987.80;1845986;76;21606;-59
2022/12/03 16:48:25;;;;;;;21.33;10.98;;;;;;;-3.24;56.87;102992.84;1843876;76;21196;-58
2022/12/03 16:52:14;;;;;;;20.45;11.22;;;;;;;-3.24;56.99;103004.45;1815801;77;21644;-58
2022/12/03 16:55:38;;;;;;;17.37;10.35;;;;;;;-3.30;56.99;103015.71;1823022;78;21357;-58
2022/12/03 16:59:06;;;;;;;16.55;10.18;;;;;;;-3.33;57.06;103022.45;1846560;76;21358;-58
2022/12/03 17:02:27;;;;;;;21.07;11.30;;;;;;;-3.35;57.16;103018.91;1845078;78;21219;-59
2022/12/03 17:05:44;;;;;;;18.35;10.32;;;;;;;-3.33;57.27;103020.64;1756439;80;21848;-59
2022/12/03 17:09:06;;;;;;;18.37;10.43;;;;;;;-3.31;57.34;103021.51;1830231;76;21753;-58
2022/12/03 17:12:34;;;;;;;16.95;9.80;;;;;;;-3.34;57.32;103022.00;1806903;77;21219;-59
2022/12/03 17:15:59;;;;;;;17.00;10.08;;;;;;;-3.36;57.29;103018.45;1786083;79;21224;-58
2022/12/03 17:19:26;;;;;;;14.25;8.93;;;;;;;-3.42;57.28;103028.83;1880939;76;21570;-58
2022/12/03 17:22:54;;;;;;;17.50;9.55;;;;;;;-3.46;57.31;103031.13;1803892;79;21199;-58
2022/12/03 17:26:12;;;;;;;16.80;9.50;;;;;;;-3.49;57.39;103034.30;1875091;76;21184;-58
2022/12/03 17:29:27;;;;;;;18.12;9.10;;;;;;;-3.51;57.45;103038.78;1854206;76;21822;-57
2022/12/03 17:32:42;;;;;;;17.70;9.95;;;;;;;-3.51;57.51;103034.33;1877615;76;21177;-58
2022/12/03 17:35:59;;;;;;;16.97;9.73;;;;;;;-3.49;57.55;103038.32;1782928;79;21259;-58
2022/12/03 17:39:13;;;;;;;16.45;9.63;;;;;;;-3.52;57.57;103043.24;1860526;76;21327;-58
2022/12/03 17:42:27;;;;;;;15.80;8.88;;;;;;;-3.53;57.57;103044.16;1857214;76;21196;-59
2022/12/03 17:45:44;;;;;;;14.55;9.35;;;;;;;-3.53;57.63;103048.17;1853411;76;21200;-58
2022/12/03 17:49:02;;;;;;;16.32;8.95;;;;;;;-3.51;57.68;103040.13;1776414;79;21242;-59
2022/12/03 17:52:09;;;;;;;15.55;9.28;;;;;;;-3.52;57.70;103041.05;1787404;79;21367;-59
2022/12/03 17:55:21;;;;;;;19.75;9.45;;;;;;;-3.53;57.72;103041.92;1771919;80;21212;-60
2022/12/03 17:58:39;;;;;;;14.35;8.63;;;;;;;-3.53;57.75;103047.28;1841291;77;21892;-59
2022/12/03 18:02:19;;;;;;;13.45;7.97;;;;;;;-3.53;57.79;103049.95;1844571;76;21251;-59
2022/12/03 18:05:40;;;;;;;15.30;9.00;;;;;;;-3.52;57.82;103053.95;1843579;77;21303;-59
2022/12/03 18:09:05;;;;;;;13.98;9.15;;;;;;;-3.52;57.77;103046.40;1843352;77;21373;-58
2022/12/03 18:12:17;;;;;;;14.78;8.58;;;;;;;-3.54;57.80;103058.91;1843742;77;21192;-60
2022/12/03 18:15:30;;;;;;;21.12;9.08;;;;;;;-3.53;57.86;103060.66;1844086;77;21319;-58
2022/12/03 18:18:41;;;;;;;14.25;8.08;;;;;;;-3.53;57.89;103070.04;1814222;77;21270;-58
2022/12/03 18:21:51;;;;;;;14.83;8.78;;;;;;;-3.55;57.85;103074.55;1843538;76;21175;-59
2022/12/03 18:25:06;;;;;;;17.30;9.55;;;;;;;-3.58;57.87;103063.41;1843989;78;21216;-59
2022/12/03 18:28:15;;;;;;;18.25;9.45;;;;;;;-3.62;57.84;103070.17;1866124;76;21208;-59
2022/12/03 18:31:28;;;;;;;20.88;9.13;;;;;;;-3.63;57.88;103065.74;1855379;76;21196;-59
2022/12/03 18:34:38;;;;;;;16.48;9.68;;;;;;;-3.63;57.92;103067.08;1857542;76;21313;-59
2022/12/03 18:37:50;;;;;;;16.20;9.65;;;;;;;-3.64;57.99;103069.30;1878600;76;21725;-59
2022/12/03 18:40:57;;;;;;;17.70;10.20;;;;;;;-3.64;58.00;103071.98;1857129;76;21205;-59
2022/12/03 18:44:08;;;;;;;16.45;8.58;;;;;;;-3.64;58.02;103075.99;1843378;76;21728;-61
2022/12/03 18:47:24;;;;;;;16.73;9.30;;;;;;;-3.64;58.00;103078.67;1859620;76;21193;-59
2022/12/03 18:50:36;;;;;;;18.07;9.93;;;;;;;-3.66;58.02;103075.12;1849676;76;21318;-59
2022/12/03 18:53:46;;;;;;;19.90;10.90;;;;;;;-3.69;58.02;103077.39;1799850;79;21816;-58
2022/12/03 18:56:59;;;;;;;17.65;10.40;;;;;;;-3.70;58.06;103076.98;1769796;80;21225;-58
2022/12/03 19:00:13;;;;;;;19.67;11.63;;;;;;;-3.72;58.10;103083.23;1778215;79;21264;-58
2022/12/03 19:03:25;;;;;;;18.17;10.03;;;;;;;-3.73;58.09;103073.00;1754840;80;21795;-59
2022/12/03 19:06:40;;;;;;;15.53;9.65;;;;;;;-3.73;58.15;103069.44;1769983;81;21394;-59
2022/12/03 19:09:50;;;;;;;30.00;16.40;;;;;;;-3.74;58.21;103069.88;1801677;79;21220;-58
2022/12/03 19:13:02;;;;;;;18.55;11.53;;;;;;;-3.74;58.20;103078.38;1754236;81;21248;-59
2022/12/03 19:16:12;;;;;;;19.05;10.13;;;;;;;-3.74;58.24;103066.34;1808178;79;21201;-59